createdAt,value
2022-12-23T00:36:28.530Z,6.90
2022-12-23T00:39:15.196Z,7.00
2022-12-23T00:52:12.471Z,6.90
2022-12-23T01:29:39.794Z,7.20
2022-12-23T01:45:05.605Z,7.70
2022-12-23T01:47:40.881Z,7.70
2022-12-23T01:52:40.377Z,7.60
2022-12-23T01:55:08.080Z,7.70
2022-12-23T01:57:37.257Z,7.60
2022-12-23T02:00:23.746Z,7.70
2022-12-23T02:03:10.876Z,7.50
2022-12-23T02:05:38.563Z,7.50
2022-12-23T02:11:16.918Z,7.50
2022-12-23T02:14:30.352Z,7.50
2022-12-23T02:17:09.904Z,7.40
2022-12-23T02:19:54.914Z,7.40
2022-12-23T02:22:57.767Z,7.40
2022-12-23T02:25:55.495Z,7.30
2022-12-23T02:28:56.139Z,7.10
2022-12-23T02:31:57.571Z,7.30
2022-12-23T02:34:39.246Z,7.30
2022-12-23T02:37:17.977Z,7.40
2022-12-23T02:39:56.858Z,7.30
2022-12-23T02:42:34.888Z,7.30
2022-12-23T02:45:10.086Z,7.40
2022-12-23T02:47:52.660Z,7.30
2022-12-23T02:50:25.221Z,7.30
2022-12-23T02:52:53.922Z,7.30
2022-12-23T02:55:27.870Z,7.30
2022-12-23T02:57:57.011Z,7.30
2022-12-23T03:05:28.333Z,7.30
2022-12-23T03:07:59.681Z,7.30
2022-12-23T03:10:44.907Z,7.30
2022-12-23T03:13:42.448Z,7.30
2022-12-23T03:16:31.953Z,7.30
2022-12-23T03:19:13.696Z,7.30
2022-12-23T03:22:03.705Z,7.30
2022-12-23T03:24:51.912Z,7.20
2022-12-23T03:30:01.816Z,7.40
2022-12-23T03:32:33.407Z,7.40
2022-12-23T03:35:02.428Z,7.50
2022-12-23T03:37:32.825Z,7.60
2022-12-23T03:40:08.544Z,7.70
2022-12-23T03:42:38.247Z,7.60
2022-12-23T03:48:39.163Z,7.70
2022-12-23T03:51:13.707Z,7.70
2022-12-23T03:53:56.022Z,7.80
2022-12-23T03:56:31.090Z,7.70
2022-12-23T03:59:19.281Z,7.80
2022-12-23T04:02:06.512Z,7.90
2022-12-23T04:04:40.579Z,7.90
2022-12-23T04:07:15.885Z,8.00
2022-12-23T04:14:44.183Z,8.10
2022-12-23T05:16:04.311Z,7.90
2022-12-23T05:25:54.008Z,8.10
2022-12-23T05:28:22.379Z,8.10
2022-12-23T05:45:35.895Z,8.20
2022-12-23T05:55:25.730Z,8.30
2022-12-23T06:17:38.056Z,8.20
2022-12-23T06:20:05.963Z,8.40
2022-12-23T06:37:23.074Z,8.60
2022-12-23T07:38:51.354Z,9.00
2022-12-23T07:48:41.827Z,9.00
2022-12-23T07:58:30.344Z,9.00
2022-12-23T08:01:05.586Z,9.20
2022-12-23T08:06:09.205Z,9.20
2022-12-23T08:11:05.794Z,9.20
2022-12-23T08:13:35.486Z,9.30
2022-12-23T08:16:03.478Z,9.30
2022-12-23T08:18:31.613Z,9.00
2022-12-23T08:21:01.167Z,9.30
2022-12-23T08:23:29.047Z,9.40
2022-12-23T08:26:12.562Z,9.40
2022-12-23T08:28:41.091Z,9.30
2022-12-23T08:31:10.763Z,9.40
2022-12-23T08:33:39.269Z,9.40
2022-12-23T08:36:08.402Z,9.20
2022-12-23T08:38:36.580Z,9.40
2022-12-23T08:58:19.573Z,9.30
2022-12-23T09:05:42.076Z,9.60
2022-12-23T09:08:09.353Z,9.70
2022-12-23T09:10:42.005Z,9.70
2022-12-23T09:13:10.695Z,9.80
2022-12-23T09:15:46.598Z,9.80
2022-12-23T09:25:36.423Z,9.70
2022-12-23T09:28:04.621Z,9.80
2022-12-23T09:40:21.796Z,9.80
2022-12-23T09:43:02.593Z,9.90
2022-12-23T09:46:00.276Z,10.10
2022-12-23T09:50:56.476Z,9.70
2022-12-23T09:53:31.031Z,9.90
2022-12-23T09:56:15.151Z,9.80
2022-12-23T09:59:43.234Z,9.90
2022-12-23T10:02:25.432Z,9.90
2022-12-23T10:05:39.807Z,9.90
2022-12-23T10:08:15.464Z,10.00
2022-12-23T10:11:01.928Z,10.00
2022-12-23T10:13:45.594Z,10.00
2022-12-23T10:16:28.286Z,10.00
2022-12-23T10:19:12.914Z,10.00
2022-12-23T10:22:10.140Z,9.90
2022-12-23T10:24:41.612Z,9.90
2022-12-23T10:27:31.345Z,9.90
2022-12-23T10:30:53.907Z,9.70
2022-12-23T10:33:30.458Z,9.80
2022-12-23T10:36:48.518Z,9.90
2022-12-23T10:41:45.638Z,10.00
2022-12-23T10:44:46.940Z,10.00
2022-12-23T10:47:31.882Z,10.00
2022-12-23T10:50:13.397Z,10.00
2022-12-23T10:52:44.196Z,10.00
2022-12-23T10:55:24.275Z,9.80
2022-12-23T10:57:54.366Z,10.10
2022-12-23T11:00:23.780Z,10.30
2022-12-23T11:03:24.144Z,10.20
2022-12-23T11:05:52.684Z,10.30
2022-12-23T11:08:22.339Z,10.30
2022-12-23T11:13:37.246Z,10.20
2022-12-23T11:16:28.032Z,10.30
2022-12-23T11:18:56.340Z,10.40
2022-12-23T11:21:23.232Z,10.40
2022-12-23T11:24:06.560Z,10.40
2022-12-23T11:26:33.716Z,10.40
2022-12-23T11:29:07.314Z,10.50
2022-12-23T11:31:35.591Z,10.20
2022-12-23T11:34:14.363Z,10.40
2022-12-23T11:39:14.473Z,10.20
2022-12-23T11:41:49.699Z,9.90
2022-12-23T11:44:31.085Z,10.30
2022-12-23T11:47:02.536Z,10.30
2022-12-23T11:49:33.573Z,10.50
2022-12-23T11:52:05.081Z,10.40
2022-12-23T11:54:33.550Z,10.40
2022-12-23T11:57:03.860Z,10.20
2022-12-23T11:59:48.900Z,10.20
2022-12-23T12:02:27.959Z,10.40
2022-12-23T12:05:16.611Z,10.50
2022-12-23T12:07:46.823Z,10.80
2022-12-23T12:10:25.402Z,10.60
2022-12-23T12:12:56.987Z,10.40
2022-12-23T12:15:41.608Z,10.50
2022-12-23T12:18:13.313Z,10.50
2022-12-23T12:20:46.799Z,10.40
2022-12-23T12:23:26.685Z,10.40
2022-12-23T12:28:25.820Z,10.40
2022-12-23T12:31:01.155Z,10.20
2022-12-23T12:33:38.320Z,10.50
2022-12-23T12:36:16.933Z,11.00
2022-12-23T12:38:48.146Z,10.40
2022-12-23T12:41:32.247Z,10.40
2022-12-23T12:44:06.789Z,10.40
2022-12-23T12:47:15.885Z,10.40
2022-12-23T12:50:02.241Z,10.60
2022-12-23T12:52:36.111Z,10.60
2022-12-23T12:55:18.855Z,10.60
2022-12-23T13:00:19.028Z,10.40
2022-12-23T13:05:37.030Z,10.60
2022-12-23T13:08:15.672Z,10.60
2022-12-23T13:13:35.600Z,10.60
2022-12-23T13:16:24.190Z,10.70
2022-12-23T13:18:58.928Z,10.60
2022-12-23T13:24:25.471Z,10.70
2022-12-23T13:27:29.321Z,10.60
2022-12-23T13:32:52.555Z,10.60
2022-12-23T13:35:35.791Z,10.70
2022-12-23T13:40:52.611Z,10.60
2022-12-23T13:43:23.846Z,10.60
2022-12-23T13:45:53.776Z,10.60
2022-12-23T13:48:39.418Z,10.70
2022-12-23T13:51:15.329Z,10.50
2022-12-23T13:54:05.340Z,10.60
2022-12-23T13:56:38.323Z,10.60
2022-12-23T13:59:10.530Z,10.60
2022-12-23T14:01:40.470Z,10.30
2022-12-23T14:04:32.095Z,10.30
2022-12-23T14:07:19.145Z,10.60
2022-12-23T14:09:54.942Z,10.60
2022-12-23T14:12:37.543Z,10.60
2022-12-23T14:15:23.381Z,10.50
2022-12-23T14:20:36.239Z,10.30
2022-12-23T14:23:21.592Z,10.50
2022-12-23T14:26:03.196Z,10.30
2022-12-23T14:28:47.034Z,10.30
2022-12-23T14:31:31.049Z,10.60
2022-12-23T14:34:20.216Z,10.80
2022-12-23T14:37:30.018Z,10.70
2022-12-23T14:43:27.589Z,10.80
2022-12-23T14:46:02.373Z,10.60
2022-12-23T14:48:47.977Z,10.80
2022-12-23T14:51:14.722Z,10.70
2022-12-23T14:53:59.641Z,10.90
2022-12-23T14:59:04.917Z,10.80
2022-12-23T15:01:41.407Z,10.90
2022-12-23T15:04:14.050Z,10.90
2022-12-23T15:09:28.495Z,10.60
2022-12-23T15:11:57.693Z,10.60
2022-12-23T15:14:55.505Z,10.90
2022-12-23T15:17:29.997Z,10.70
2022-12-23T15:20:25.247Z,10.90
2022-12-23T15:32:43.069Z,10.90
2022-12-23T15:35:17.676Z,10.90
2022-12-23T15:40:30.393Z,10.90
2022-12-23T15:42:58.264Z,10.90
2022-12-23T15:45:32.229Z,10.90
2022-12-23T15:50:28.142Z,10.90
2022-12-23T15:52:57.571Z,10.90
2022-12-23T15:55:32.740Z,10.80
2022-12-23T15:58:01.025Z,10.90
2022-12-23T16:00:40.001Z,10.90
2022-12-23T16:03:18.860Z,10.90
2022-12-23T16:08:23.077Z,10.90
2022-12-23T16:11:16.863Z,11.00
2022-12-23T16:14:20.277Z,10.90
2022-12-23T16:19:36.679Z,11.00
2022-12-23T16:22:23.186Z,11.00
2022-12-23T16:24:58.874Z,10.90
2022-12-23T16:27:37.431Z,10.90
2022-12-23T16:30:20.522Z,11.00
2022-12-23T16:33:02.927Z,10.80
2022-12-23T16:35:47.882Z,11.00
2022-12-23T16:38:26.136Z,10.90
2022-12-23T16:40:57.233Z,10.80
2022-12-23T16:43:25.255Z,11.00
2022-12-23T16:45:55.210Z,11.00
2022-12-23T16:48:42.809Z,10.90
2022-12-23T16:51:14.585Z,10.90
2022-12-23T16:56:19.845Z,11.00
2022-12-23T17:01:26.054Z,11.00
2022-12-23T17:03:53.649Z,11.00
2022-12-23T17:11:17.752Z,11.10
2022-12-23T17:16:20.670Z,11.10
2022-12-23T17:18:48.828Z,11.10
2022-12-23T17:21:24.383Z,11.00
2022-12-23T17:23:53.511Z,11.20
2022-12-23T17:41:23.180Z,11.30
2022-12-23T17:51:19.777Z,11.30
2022-12-23T17:53:51.593Z,11.30
2022-12-23T17:58:50.852Z,11.40
2022-12-23T18:01:21.712Z,11.40
2022-12-23T18:06:18.416Z,11.50
2022-12-23T18:11:19.119Z,11.50
2022-12-23T18:13:47.794Z,11.40
2022-12-23T18:26:15.341Z,11.50
2022-12-23T18:28:43.503Z,11.40
2022-12-23T18:31:17.264Z,11.50
2022-12-23T18:36:33.302Z,11.60
2022-12-23T18:51:20.874Z,11.60
2022-12-23T18:56:21.196Z,11.60
2022-12-23T19:01:16.921Z,11.50
2022-12-23T19:06:13.823Z,11.60
2022-12-23T19:11:19.306Z,11.60
2022-12-23T19:13:47.167Z,11.50
2022-12-23T19:16:16.654Z,11.70
2022-12-23T19:23:40.955Z,11.70
2022-12-23T19:26:12.806Z,11.80
2022-12-23T19:31:13.158Z,11.70
2022-12-23T19:33:41.684Z,11.70
2022-12-23T19:36:10.894Z,11.70
2022-12-23T19:41:07.174Z,11.80
2022-12-23T19:43:38.499Z,11.70
2022-12-23T19:46:08.241Z,11.70
2022-12-23T19:51:07.470Z,11.60
2022-12-23T19:56:14.198Z,11.70
2022-12-23T19:58:42.854Z,11.60
2022-12-23T20:01:11.932Z,11.50
2022-12-23T20:03:40.203Z,11.60
2022-12-23T20:06:11.567Z,11.60
2022-12-23T20:11:07.190Z,11.60
2022-12-23T20:33:16.126Z,11.50
2022-12-23T20:38:10.222Z,11.50
2022-12-23T21:49:20.772Z,10.80
2022-12-23T21:59:13.159Z,10.80
2022-12-23T22:06:37.997Z,10.70
2022-12-23T22:09:07.112Z,10.70
2022-12-23T22:11:35.939Z,10.70
2022-12-23T22:14:05.063Z,10.60
2022-12-23T22:19:00.911Z,10.70
2022-12-23T22:23:57.091Z,10.70
2022-12-23T22:26:26.753Z,10.60
2022-12-23T22:28:55.543Z,10.60
2022-12-23T22:31:36.782Z,10.70
2022-12-23T22:34:04.799Z,10.70
2022-12-23T22:39:00.184Z,10.50
2022-12-23T22:41:29.386Z,10.70
2022-12-23T22:43:57.102Z,10.70
2022-12-23T22:48:52.690Z,10.60
2022-12-23T22:51:23.059Z,10.70
2022-12-23T22:56:18.556Z,10.60
2022-12-23T23:01:33.451Z,10.70
2022-12-23T23:04:02.978Z,10.70
2022-12-23T23:06:38.205Z,10.70
2022-12-23T23:09:11.680Z,10.70
2022-12-23T23:28:54.713Z,10.70
